Delray Beach, FL

5:15 AM EST on February 01, 2015 (GMT -0500)
Brads Bedding Plants Inc. | Change Station
CLOSE
Current Station
Personal Weather Station
Location: Delray Beach, FL
Elevation: 19 ft
Nearby Weather Stations

Elev 19 ft 26.47 °N, 80.18 °W | Updated 1 day ago

Partly Cloudy
Partly Cloudy
59 °F
Feels Like 59 °F
N
9
Wind Variable Wind from ESE
Gusts 12 mph

Today
High -- | Low -- °F
--% Chance of Precip.
Yesterday
High -- | Low -- °F
Precip. -- in
7:05 AM 6:03 PM
Waxing Gibbous, 94% visible
Pressure 30.20 in
Visibility 10.0 miles
Clouds Mostly Cloudy 4800 ft
Mostly Cloudy 5500 ft
Dew Point 55 °F
Humidity 87%
Rainfall 0.00 in
Snow Depth Not available.
UV 2.1 out of 12
Pollen 8.30 out of 12
Air Quality Not available.
Flu Activity Not available.
METAR KPMP 010953Z AUTO 10009KT 10SM BKN048 BKN055 21/11 A3019 RMK AO2 SLP225 T02060106

More Conditions Fewer Conditions

Pressure 30.20 in
Visibility 10.0 miles
Clouds Mostly Cloudy 4800 ft
Mostly Cloudy 5500 ft
Dew Point 55 °F
Humidity 87%
Rainfall 0.00 in
Snow Depth Not available.
UV 2.1 out of 12
Pollen 8.30 out of 12
Air Quality Not available.
Flu Activity Not available.
METAR KPMP 010953Z AUTO 10009KT 10SM BKN048 BKN055 21/11 A3019 RMK AO2 SLP225 T02060106

More Conditions Fewer Conditions

10-Day Weather Forecast

Almanac

Astronomy

Feb. 01, 2015 Rise Set
Actual Time
Civil Twilight
Nautical Twilight
Astronomical Twilight
Moon
Length of Visible Light
Length of Day
Tomorrow will be .
, % of the Moon is Illuminated

Today's Extremes

State Highs State Lows

Community

WunderPhotos

Upload Photos

1,792,330 photos uploaded!

WunderBlogs® & News

Nearby

Air Quality

  Air Quality AQ Index Pollutant
Not available.

Snow Depth

Station Depth Elevation

Earthquake Activity

City Distance Mag. Time & Date
Minimum magnitude displayed is 2.5.

Coastal Water Temperatures

Place Temperature

Nearby Weather Stations